Time,TemperatureF,DewpointF,PressureIn,WindDirection,WindDirectionDegrees,WindSpeedMPH,WindSpeedGustMPH,Humidity,HourlyPrecipIn,Conditions,Clouds,dailyrainin,SolarRadiationWatts/m^2,SoftwareType,DateUTC
2013-06-30 00:02:00,61.0,61.0,-100.00,South,171,0.0,3.0,100,0.00,,,0.00,1.000000,,2013-06-30 07:02:00,
2013-06-30 00:33:00,60.0,60.0,-100.00,WSW,255,0.0,4.0,100,0.00,,,0.00,1.000000,,2013-06-30 07:33:00,
2013-06-30 00:44:00,60.0,60.0,-100.00,WSW,255,0.0,4.0,100,0.00,,,0.00,1.000000,,2013-06-30 07:44:00,
2013-06-30 00:53:00,60.0,60.0,-100.00,WSW,255,0.0,4.0,100,0.00,,,0.00,1.000000,,2013-06-30 07:53:00,
2013-06-30 01:02:00,60.0,60.0,-100.00,WSW,255,0.0,4.0,100,0.00,,,0.00,1.000000,,2013-06-30 08:02:00,
2013-06-30 01:22:00,60.0,60.0,-100.00,South,185,3.0,5.0,100,0.00,,,0.00,1.000000,,2013-06-30 08:22:00,
2013-06-30 01:34:00,60.0,60.0,-100.00,South,185,3.0,5.0,100,0.00,,,0.00,1.000000,,2013-06-30 08:34:00,
2013-06-30 01:42:00,60.0,60.0,-100.00,South,185,3.0,5.0,100,0.00,,,0.00,1.000000,,2013-06-30 08:42:00,
2013-06-30 01:53:00,60.0,60.0,-100.00,South,185,3.0,5.0,100,0.00,,,0.00,1.000000,,2013-06-30 08:53:00,
2013-06-30 02:01:00,60.0,60.0,-100.00,South,185,3.0,5.0,100,0.00,,,0.00,1.000000,,2013-06-30 09:01:00,
2013-06-30 02:34:00,59.0,59.0,-100.00,SSW,194,3.0,7.0,100,0.00,,,0.00,1.000000,,2013-06-30 09:34:00,
2013-06-30 02:43:00,59.0,59.0,-100.00,SSW,194,3.0,7.0,100,0.00,,,0.00,1.000000,,2013-06-30 09:43:00,
2013-06-30 02:53:00,59.0,59.0,-100.00,SSW,194,3.0,7.0,100,0.00,,,0.00,1.000000,,2013-06-30 09:53:00,
2013-06-30 03:02:00,59.0,59.0,-100.00,SSW,194,3.0,7.0,100,0.00,,,0.00,1.000000,,2013-06-30 10:02:00,
2013-06-30 03:34:00,60.0,60.0,-100.00,South,169,6.0,8.0,100,0.00,,,0.00,1.000000,,2013-06-30 10:34:00,
2013-06-30 03:43:00,60.0,60.0,-100.00,South,169,6.0,8.0,100,0.00,,,0.00,1.000000,,2013-06-30 10:43:00,
2013-06-30 03:53:00,60.0,60.0,-100.00,South,169,6.0,8.0,100,0.00,,,0.00,1.000000,,2013-06-30 10:53:00,
2013-06-30 04:02:00,60.0,60.0,-100.00,South,169,6.0,8.0,100,0.00,,,0.00,1.000000,,2013-06-30 11:02:00,
2013-06-30 04:33:00,59.0,59.0,-100.00,South,184,2.0,9.0,100,0.00,,,0.00,1.000000,,2013-06-30 11:33:00,
2013-06-30 04:43:00,59.0,59.0,-100.00,South,184,2.0,9.0,100,0.00,,,0.00,1.000000,,2013-06-30 11:43:00,
2013-06-30 04:53:00,59.0,59.0,-100.00,South,184,2.0,9.0,100,0.00,,,0.00,1.000000,,2013-06-30 11:53:00,
2013-06-30 05:01:00,59.0,59.0,-100.00,South,184,2.0,9.0,100,0.00,,,0.00,1.000000,,2013-06-30 12:01:00,
2013-06-30 05:33:00,59.0,59.0,-100.00,SSE,166,2.0,8.0,100,0.00,,,0.00,2.000000,,2013-06-30 12:33:00,
2013-06-30 05:43:00,59.0,59.0,-100.00,SSE,166,2.0,8.0,100,0.00,,,0.00,2.000000,,2013-06-30 12:43:00,
2013-06-30 05:52:00,59.0,59.0,-100.00,SSE,166,2.0,8.0,100,0.00,,,0.00,2.000000,,2013-06-30 12:52:00,
2013-06-30 06:02:00,59.0,59.0,-100.00,SSE,166,2.0,8.0,100,0.00,,,0.00,2.000000,,2013-06-30 13:02:00,
2013-06-30 06:34:00,59.0,59.0,-100.00,South,169,0.0,7.0,100,0.00,,,0.00,5.000000,,2013-06-30 13:34:00,
2013-06-30 06:44:00,59.0,59.0,-100.00,South,169,0.0,7.0,100,0.00,,,0.00,5.000000,,2013-06-30 13:44:00,
2013-06-30 06:53:00,59.0,59.0,-100.00,South,169,0.0,7.0,100,0.00,,,0.00,5.000000,,2013-06-30 13:53:00,
2013-06-30 07:02:00,59.0,59.0,-100.00,South,169,0.0,7.0,100,0.00,,,0.00,5.000000,,2013-06-30 14:02:00,
2013-06-30 07:33:00,61.0,61.0,-100.00,SSW,195,1.0,5.0,100,0.00,,,0.00,25.000000,,2013-06-30 14:33:00,
2013-06-30 07:44:00,61.0,61.0,-100.00,SSW,195,1.0,5.0,100,0.00,,,0.00,25.000000,,2013-06-30 14:44:00,
2013-06-30 07:52:00,61.0,61.0,-100.00,SSW,195,1.0,5.0,100,0.00,,,0.00,25.000000,,2013-06-30 14:52:00,
2013-06-30 08:02:00,61.0,61.0,-100.00,SSW,195,1.0,5.0,100,0.00,,,0.00,25.000000,,2013-06-30 15:02:00,
2013-06-30 08:34:00,60.0,60.0,-100.00,South,174,4.0,7.0,100,0.00,,,0.00,96.000000,,2013-06-30 15:34:00,
2013-06-30 08:44:00,60.0,60.0,-100.00,South,174,4.0,7.0,100,0.00,,,0.00,96.000000,,2013-06-30 15:44:00,
2013-06-30 08:53:00,60.0,60.0,-100.00,South,174,4.0,7.0,100,0.00,,,0.00,96.000000,,2013-06-30 15:53:00,
2013-06-30 09:01:00,60.0,60.0,-100.00,South,174,4.0,7.0,100,0.00,,,0.00,96.000000,,2013-06-30 16:01:00,
2013-06-30 09:34:00,64.0,64.0,-100.00,WSW,254,0.0,7.0,100,0.00,,,0.00,178.000000,,2013-06-30 16:34:00,
2013-06-30 09:44:00,64.0,64.0,-100.00,WSW,254,0.0,7.0,100,0.00,,,0.00,178.000000,,2013-06-30 16:44:00,
2013-06-30 09:53:00,64.0,64.0,-100.00,WSW,254,0.0,7.0,100,0.00,,,0.00,178.000000,,2013-06-30 16:53:00,
2013-06-30 10:01:00,64.0,64.0,-100.00,WSW,254,0.0,7.0,100,0.00,,,0.00,178.000000,,2013-06-30 17:01:00,
2013-06-30 10:34:00,69.0,67.0,-100.00,North,4,1.0,7.0,93,0.00,,,0.00,404.000000,,2013-06-30 17:34:00,
2013-06-30 10:43:00,69.0,67.0,-100.00,North,4,1.0,7.0,93,0.00,,,0.00,404.000000,,2013-06-30 17:43:00,
2013-06-30 10:52:00,69.0,67.0,-100.00,North,4,1.0,7.0,93,0.00,,,0.00,404.000000,,2013-06-30 17:52:00,
2013-06-30 11:01:00,69.0,67.0,-100.00,North,4,1.0,7.0,93,0.00,,,0.00,404.000000,,2013-06-30 18:01:00,
2013-06-30 11:34:00,69.0,64.0,-100.00,NW,326,5.0,8.0,84,0.00,,,0.00,669.000000,,2013-06-30 18:34:00,
2013-06-30 11:43:00,69.0,64.0,-100.00,NW,326,5.0,8.0,84,0.00,,,0.00,669.000000,,2013-06-30 18:43:00,
2013-06-30 11:53:00,69.0,64.0,-100.00,NW,326,5.0,8.0,84,0.00,,,0.00,669.000000,,2013-06-30 18:53:00,
2013-06-30 12:01:00,69.0,64.0,-100.00,NW,326,5.0,8.0,84,0.00,,,0.00,669.000000,,2013-06-30 19:01:00,
2013-06-30 12:33:00,67.0,62.0,-100.00,NW,323,4.0,10.0,85,0.00,,,0.00,869.000000,,2013-06-30 19:33:00,
2013-06-30 12:43:00,67.0,62.0,-100.00,NW,323,4.0,10.0,85,0.00,,,0.00,869.000000,,2013-06-30 19:43:00,
2013-06-30 12:53:00,67.0,62.0,-100.00,NW,323,4.0,10.0,85,0.00,,,0.00,869.000000,,2013-06-30 19:53:00,
2013-06-30 13:01:00,67.0,62.0,-100.00,NW,323,4.0,10.0,85,0.00,,,0.00,869.000000,,2013-06-30 20:01:00,
2013-06-30 13:34:00,69.0,64.0,-100.00,West,278,5.0,10.0,84,0.00,,,0.00,744.000000,,2013-06-30 20:34:00,
2013-06-30 13:42:00,69.0,64.0,-100.00,West,278,5.0,10.0,84,0.00,,,0.00,744.000000,,2013-06-30 20:42:00,
2013-06-30 13:52:00,69.0,64.0,-100.00,West,278,5.0,10.0,84,0.00,,,0.00,744.000000,,2013-06-30 20:52:00,
2013-06-30 14:01:00,69.0,64.0,-100.00,West,278,5.0,10.0,84,0.00,,,0.00,744.000000,,2013-06-30 21:01:00,
2013-06-30 14:34:00,68.0,61.0,-100.00,NNW,333,6.0,12.0,79,0.00,,,0.00,929.000000,,2013-06-30 21:34:00,
2013-06-30 14:43:00,68.0,61.0,-100.00,NNW,333,6.0,12.0,79,0.00,,,0.00,929.000000,,2013-06-30 21:43:00,
2013-06-30 14:53:00,68.0,61.0,-100.00,NNW,333,6.0,12.0,79,0.00,,,0.00,929.000000,,2013-06-30 21:53:00,
2013-06-30 15:01:00,68.0,61.0,-100.00,NNW,333,6.0,12.0,79,0.00,,,0.00,929.000000,,2013-06-30 22:01:00,
2013-06-30 15:22:00,70.0,63.0,-100.00,NW,313,7.0,12.0,79,0.00,,,0.00,927.000000,,2013-06-30 22:22:00,
2013-06-30 15:34:00,70.0,63.0,-100.00,NW,313,7.0,12.0,79,0.00,,,0.00,927.000000,,2013-06-30 22:34:00,
2013-06-30 15:43:00,70.0,63.0,-100.00,NW,313,7.0,12.0,79,0.00,,,0.00,927.000000,,2013-06-30 22:43:00,
2013-06-30 15:53:00,70.0,63.0,-100.00,NW,313,7.0,12.0,79,0.00,,,0.00,927.000000,,2013-06-30 22:53:00,
2013-06-30 16:01:00,70.0,63.0,-100.00,NW,313,7.0,12.0,79,0.00,,,0.00,927.000000,,2013-06-30 23:01:00,
2013-06-30 16:33:00,70.0,62.0,-100.00,NNW,342,6.0,12.0,77,0.00,,,0.00,858.000000,,2013-06-30 23:33:00,
2013-06-30 16:44:00,70.0,62.0,-100.00,NNW,342,6.0,12.0,77,0.00,,,0.00,858.000000,,2013-06-30 23:44:00,
2013-06-30 16:53:00,70.0,62.0,-100.00,NNW,342,6.0,12.0,77,0.00,,,0.00,858.000000,,2013-06-30 23:53:00,
2013-06-30 17:01:00,70.0,62.0,-100.00,NNW,342,6.0,12.0,77,0.00,,,0.00,858.000000,,2013-07-01 00:01:00,
2013-06-30 17:33:00,70.0,63.0,-100.00,NNW,328,7.0,14.0,78,0.00,,,0.00,735.000000,,2013-07-01 00:33:00,
2013-06-30 17:42:00,70.0,63.0,-100.00,NNW,328,7.0,14.0,78,0.00,,,0.00,735.000000,,2013-07-01 00:42:00,
2013-06-30 17:52:00,70.0,63.0,-100.00,NNW,328,7.0,14.0,78,0.00,,,0.00,735.000000,,2013-07-01 00:52:00,
2013-06-30 18:01:00,70.0,63.0,-100.00,NNW,328,7.0,14.0,78,0.00,,,0.00,735.000000,,2013-07-01 01:01:00,
2013-06-30 18:34:00,68.0,63.0,-100.00,NNW,329,7.0,14.0,83,0.00,,,0.00,566.000000,,2013-07-01 01:34:00,
2013-06-30 18:43:00,68.0,63.0,-100.00,NNW,329,7.0,14.0,83,0.00,,,0.00,566.000000,,2013-07-01 01:43:00,
2013-06-30 18:52:00,68.0,63.0,-100.00,NNW,329,7.0,14.0,83,0.00,,,0.00,566.000000,,2013-07-01 01:52:00,
2013-06-30 19:02:00,68.0,63.0,-100.00,NNW,329,7.0,14.0,83,0.00,,,0.00,566.000000,,2013-07-01 02:02:00,
2013-06-30 19:33:00,65.0,62.0,-100.00,NNW,329,7.0,14.0,89,0.00,,,0.00,343.000000,,2013-07-01 02:33:00,
2013-06-30 19:44:00,65.0,62.0,-100.00,NNW,329,7.0,14.0,89,0.00,,,0.00,343.000000,,2013-07-01 02:44:00,
2013-06-30 19:54:00,65.0,62.0,-100.00,NNW,329,7.0,14.0,89,0.00,,,0.00,343.000000,,2013-07-01 02:54:00,
2013-06-30 20:01:00,65.0,62.0,-100.00,NNW,329,7.0,14.0,89,0.00,,,0.00,343.000000,,2013-07-01 03:01:00,
2013-06-30 20:33:00,64.0,62.0,-100.00,NW,322,5.0,12.0,94,0.00,,,0.00,238.000000,,2013-07-01 03:33:00,
2013-06-30 20:43:00,64.0,62.0,-100.00,NW,322,5.0,12.0,94,0.00,,,0.00,238.000000,,2013-07-01 03:43:00,
2013-06-30 20:52:00,64.0,62.0,-100.00,NW,322,5.0,12.0,94,0.00,,,0.00,238.000000,,2013-07-01 03:52:00,
2013-06-30 21:01:00,64.0,62.0,-100.00,NW,322,5.0,12.0,94,0.00,,,0.00,238.000000,,2013-07-01 04:01:00,
2013-06-30 21:32:00,62.0,62.0,-100.00,NNW,330,4.0,10.0,100,0.00,,,0.00,43.000000,,2013-07-01 04:32:00,
2013-06-30 21:43:00,62.0,62.0,-100.00,NNW,330,4.0,10.0,100,0.00,,,0.00,43.000000,,2013-07-01 04:43:00,
2013-06-30 21:53:00,62.0,62.0,-100.00,NNW,330,4.0,10.0,100,0.00,,,0.00,43.000000,,2013-07-01 04:53:00,
2013-06-30 22:01:00,62.0,62.0,-100.00,NNW,330,4.0,10.0,100,0.00,,,0.00,43.000000,,2013-07-01 05:01:00,
2013-06-30 22:33:00,61.0,61.0,-100.00,NW,326,3.0,9.0,100,0.00,,,0.00,2.000000,,2013-07-01 05:33:00,
2013-06-30 22:42:00,61.0,61.0,-100.00,NW,326,3.0,9.0,100,0.00,,,0.00,2.000000,,2013-07-01 05:42:00,
2013-06-30 22:52:00,61.0,61.0,-100.00,NW,326,3.0,9.0,100,0.00,,,0.00,2.000000,,2013-07-01 05:52:00,
2013-06-30 23:02:00,61.0,61.0,-100.00,NW,326,3.0,9.0,100,0.00,,,0.00,2.000000,,2013-07-01 06:02:00,
2013-06-30 23:33:00,59.0,59.0,-100.00,NNW,335,5.0,8.0,100,0.00,,,0.00,2.000000,,2013-07-01 06:33:00,
2013-06-30 23:43:00,59.0,59.0,-100.00,NNW,335,5.0,8.0,100,0.00,,,0.00,2.000000,,2013-07-01 06:43:00,
2013-06-30 23:53:00,59.0,59.0,-100.00,NNW,335,5.0,8.0,100,0.00,,,0.00,2.000000,,2013-07-01 06:53:00,